sensor_id;sensor_type;location;lat;lon;timestamp;temperature;humidity
52044;DHT22;38053;53.100;6.078;2023-05-01T00:00:02;8.70;99.90
52044;DHT22;38053;53.100;6.078;2023-05-01T00:02:31;8.70;99.90
52044;DHT22;38053;53.100;6.078;2023-05-01T00:04:57;8.70;99.90
52044;DHT22;38053;53.100;6.078;2023-05-01T00:07:23;8.70;99.90
52044;DHT22;38053;53.100;6.078;2023-05-01T00:09:55;8.70;99.90
52044;DHT22;38053;53.100;6.078;2023-05-01T00:12:21;8.60;99.90
52044;DHT22;38053;53.100;6.078;2023-05-01T00:14:47;8.60;99.90
52044;DHT22;38053;53.100;6.078;2023-05-01T00:17:13;8.60;99.90
52044;DHT22;38053;53.100;6.078;2023-05-01T00:19:38;8.60;99.90
52044;DHT22;38053;53.100;6.078;2023-05-01T00:22:05;8.60;99.90
52044;DHT22;38053;53.100;6.078;2023-05-01T00:24:31;8.60;99.90
52044;DHT22;38053;53.100;6.078;2023-05-01T00:26:56;8.50;99.90
52044;DHT22;38053;53.100;6.078;2023-05-01T00:29:22;8.50;99.90
52044;DHT22;38053;53.100;6.078;2023-05-01T00:31:48;8.50;99.90
52044;DHT22;38053;53.100;6.078;2023-05-01T00:34:14;8.50;99.90
52044;DHT22;38053;53.100;6.078;2023-05-01T00:36:39;8.50;99.90
52044;DHT22;38053;53.100;6.078;2023-05-01T00:39:05;8.50;99.90
52044;DHT22;38053;53.100;6.078;2023-05-01T00:41:35;8.40;99.90
52044;DHT22;38053;53.100;6.078;2023-05-01T00:44:01;8.40;99.90
52044;DHT22;38053;53.100;6.078;2023-05-01T00:46:28;8.40;99.90
52044;DHT22;38053;53.100;6.078;2023-05-01T00:48:57;8.40;99.90
52044;DHT22;38053;53.100;6.078;2023-05-01T00:51:23;8.40;99.90
52044;DHT22;38053;53.100;6.078;2023-05-01T00:53:51;8.30;99.90
52044;DHT22;38053;53.100;6.078;2023-05-01T00:56:17;8.30;99.90
52044;DHT22;38053;53.100;6.078;2023-05-01T00:58:45;8.30;99.90
52044;DHT22;38053;53.100;6.078;2023-05-01T01:01:13;8.30;99.90
52044;DHT22;38053;53.100;6.078;2023-05-01T01:03:40;8.20;99.90
52044;DHT22;38053;53.100;6.078;2023-05-01T01:06:09;8.20;99.90
52044;DHT22;38053;53.100;6.078;2023-05-01T01:08:53;8.20;99.90
52044;DHT22;38053;53.100;6.078;2023-05-01T01:11:32;8.20;99.90
52044;DHT22;38053;53.100;6.078;2023-05-01T01:14:10;8.20;99.90
52044;DHT22;38053;53.100;6.078;2023-05-01T01:22:19;8.10;99.90
52044;DHT22;38053;53.100;6.078;2023-05-01T01:35:52;8.00;99.90
52044;DHT22;38053;53.100;6.078;2023-05-01T01:38:22;8.00;99.90
52044;DHT22;38053;53.100;6.078;2023-05-01T01:41:08;8.00;99.90
52044;DHT22;38053;53.100;6.078;2023-05-01T01:43:39;7.90;99.90
52044;DHT22;38053;53.100;6.078;2023-05-01T01:46:07;7.90;99.90
52044;DHT22;38053;53.100;6.078;2023-05-01T01:48:37;7.90;99.90
52044;DHT22;38053;53.100;6.078;2023-05-01T01:51:09;7.90;99.90
52044;DHT22;38053;53.100;6.078;2023-05-01T01:53:38;7.90;99.90
52044;DHT22;38053;53.100;6.078;2023-05-01T01:56:06;7.80;99.90
52044;DHT22;38053;53.100;6.078;2023-05-01T01:58:34;7.80;99.90
52044;DHT22;38053;53.100;6.078;2023-05-01T02:01:01;7.80;99.90
52044;DHT22;38053;53.100;6.078;2023-05-01T02:03:28;7.80;99.90
52044;DHT22;38053;53.100;6.078;2023-05-01T02:05:55;7.80;99.90
52044;DHT22;38053;53.100;6.078;2023-05-01T02:08:23;7.80;99.90
52044;DHT22;38053;53.100;6.078;2023-05-01T02:10:50;7.70;99.90
52044;DHT22;38053;53.100;6.078;2023-05-01T02:13:22;7.70;99.90
52044;DHT22;38053;53.100;6.078;2023-05-01T02:15:50;7.70;99.90
52044;DHT22;38053;53.100;6.078;2023-05-01T02:18:17;7.70;99.90
52044;DHT22;38053;53.100;6.078;2023-05-01T02:20:43;7.70;99.90
52044;DHT22;38053;53.100;6.078;2023-05-01T02:23:10;7.70;99.90
52044;DHT22;38053;53.100;6.078;2023-05-01T02:25:38;7.70;99.90
52044;DHT22;38053;53.100;6.078;2023-05-01T02:28:11;7.70;99.90
52044;DHT22;38053;53.100;6.078;2023-05-01T02:30:38;7.70;99.90
52044;DHT22;38053;53.100;6.078;2023-05-01T02:33:06;7.70;99.90
52044;DHT22;38053;53.100;6.078;2023-05-01T02:35:42;7.60;99.90
52044;DHT22;38053;53.100;6.078;2023-05-01T02:38:15;7.60;99.90
52044;DHT22;38053;53.100;6.078;2023-05-01T02:40:44;7.60;99.90
52044;DHT22;38053;53.100;6.078;2023-05-01T02:43:13;7.60;99.90
52044;DHT22;38053;53.100;6.078;2023-05-01T02:45:41;7.60;99.90
52044;DHT22;38053;53.100;6.078;2023-05-01T02:48:11;7.60;99.90
52044;DHT22;38053;53.100;6.078;2023-05-01T02:50:38;7.60;99.90
52044;DHT22;38053;53.100;6.078;2023-05-01T02:53:07;7.60;99.90
52044;DHT22;38053;53.100;6.078;2023-05-01T02:55:34;7.60;99.90
52044;DHT22;38053;53.100;6.078;2023-05-01T02:58:00;7.60;99.90
52044;DHT22;38053;53.100;6.078;2023-05-01T03:00:26;7.50;99.90
52044;DHT22;38053;53.100;6.078;2023-05-01T03:02:52;7.50;99.90
52044;DHT22;38053;53.100;6.078;2023-05-01T03:05:18;7.50;99.90
52044;DHT22;38053;53.100;6.078;2023-05-01T03:07:44;7.50;99.90
52044;DHT22;38053;53.100;6.078;2023-05-01T03:10:10;7.50;99.90
52044;DHT22;38053;53.100;6.078;2023-05-01T03:12:36;7.50;99.90
52044;DHT22;38053;53.100;6.078;2023-05-01T03:15:02;7.50;99.90
52044;DHT22;38053;53.100;6.078;2023-05-01T03:17:27;7.40;99.90
52044;DHT22;38053;53.100;6.078;2023-05-01T03:19:54;7.40;99.90
52044;DHT22;38053;53.100;6.078;2023-05-01T03:22:20;7.40;99.90
52044;DHT22;38053;53.100;6.078;2023-05-01T03:24:46;7.40;99.90
52044;DHT22;38053;53.100;6.078;2023-05-01T03:27:12;7.40;99.90
52044;DHT22;38053;53.100;6.078;2023-05-01T03:29:38;7.40;99.90
52044;DHT22;38053;53.100;6.078;2023-05-01T03:32:04;7.30;99.90
52044;DHT22;38053;53.100;6.078;2023-05-01T03:34:30;7.30;99.90
52044;DHT22;38053;53.100;6.078;2023-05-01T03:36:56;7.30;99.90
52044;DHT22;38053;53.100;6.078;2023-05-01T03:39:21;7.20;99.90
52044;DHT22;38053;53.100;6.078;2023-05-01T03:41:47;7.20;99.90
52044;DHT22;38053;53.100;6.078;2023-05-01T03:44:13;7.20;99.90
52044;DHT22;38053;53.100;6.078;2023-05-01T03:46:38;7.20;99.90
52044;DHT22;38053;53.100;6.078;2023-05-01T03:49:05;7.20;99.90
52044;DHT22;38053;53.100;6.078;2023-05-01T03:51:30;7.10;99.90
52044;DHT22;38053;53.100;6.078;2023-05-01T03:53:57;7.10;99.90
52044;DHT22;38053;53.100;6.078;2023-05-01T03:56:27;7.10;99.90
52044;DHT22;38053;53.100;6.078;2023-05-01T03:58:53;7.10;99.90
52044;DHT22;38053;53.100;6.078;2023-05-01T04:01:19;7.00;99.90
52044;DHT22;38053;53.100;6.078;2023-05-01T04:03:45;7.00;99.90
52044;DHT22;38053;53.100;6.078;2023-05-01T04:06:11;7.00;99.90
52044;DHT22;38053;53.100;6.078;2023-05-01T04:08:37;6.90;99.90
52044;DHT22;38053;53.100;6.078;2023-05-01T04:11:03;6.90;99.90
52044;DHT22;38053;53.100;6.078;2023-05-01T04:13:29;6.90;99.90
52044;DHT22;38053;53.100;6.078;2023-05-01T04:15:55;6.90;99.90
52044;DHT22;38053;53.100;6.078;2023-05-01T04:18:23;6.80;99.90
52044;DHT22;38053;53.100;6.078;2023-05-01T04:20:50;6.80;99.90
52044;DHT22;38053;53.100;6.078;2023-05-01T04:23:15;6.80;99.90
52044;DHT22;38053;53.100;6.078;2023-05-01T04:25:41;6.80;99.90
52044;DHT22;38053;53.100;6.078;2023-05-01T04:28:10;6.80;99.90
52044;DHT22;38053;53.100;6.078;2023-05-01T04:30:36;6.90;99.90
52044;DHT22;38053;53.100;6.078;2023-05-01T04:33:02;6.90;99.90
52044;DHT22;38053;53.100;6.078;2023-05-01T04:35:31;6.90;99.90
52044;DHT22;38053;53.100;6.078;2023-05-01T04:37:57;6.90;99.90
52044;DHT22;38053;53.100;6.078;2023-05-01T04:40:23;6.90;99.90
52044;DHT22;38053;53.100;6.078;2023-05-01T04:42:48;6.90;99.90
52044;DHT22;38053;53.100;6.078;2023-05-01T04:45:14;7.00;99.90
52044;DHT22;38053;53.100;6.078;2023-05-01T04:47:40;7.00;99.90
52044;DHT22;38053;53.100;6.078;2023-05-01T04:50:06;7.00;99.90
52044;DHT22;38053;53.100;6.078;2023-05-01T04:52:32;7.10;99.90
52044;DHT22;38053;53.100;6.078;2023-05-01T04:54:58;7.10;99.90
52044;DHT22;38053;53.100;6.078;2023-05-01T04:57:24;7.10;99.90
52044;DHT22;38053;53.100;6.078;2023-05-01T04:59:52;7.20;99.90
52044;DHT22;38053;53.100;6.078;2023-05-01T05:02:18;7.20;99.90
52044;DHT22;38053;53.100;6.078;2023-05-01T05:04:44;7.30;99.90
52044;DHT22;38053;53.100;6.078;2023-05-01T05:07:09;7.30;99.90
52044;DHT22;38053;53.100;6.078;2023-05-01T05:09:35;7.40;99.90
52044;DHT22;38053;53.100;6.078;2023-05-01T05:12:01;7.40;99.90
52044;DHT22;38053;53.100;6.078;2023-05-01T05:14:29;7.50;99.90
52044;DHT22;38053;53.100;6.078;2023-05-01T05:16:54;7.60;99.90
52044;DHT22;38053;53.100;6.078;2023-05-01T05:19:20;7.60;99.90
52044;DHT22;38053;53.100;6.078;2023-05-01T05:21:46;7.70;99.90
52044;DHT22;38053;53.100;6.078;2023-05-01T05:24:13;7.70;99.90
52044;DHT22;38053;53.100;6.078;2023-05-01T05:26:38;7.80;99.90
52044;DHT22;38053;53.100;6.078;2023-05-01T05:29:04;7.80;99.90
52044;DHT22;38053;53.100;6.078;2023-05-01T05:31:30;7.90;99.90
52044;DHT22;38053;53.100;6.078;2023-05-01T05:33:56;7.90;99.90
52044;DHT22;38053;53.100;6.078;2023-05-01T05:36:21;8.00;99.90
52044;DHT22;38053;53.100;6.078;2023-05-01T05:38:47;8.00;99.90
52044;DHT22;38053;53.100;6.078;2023-05-01T05:41:13;8.00;99.90
52044;DHT22;38053;53.100;6.078;2023-05-01T05:43:38;8.10;99.90
52044;DHT22;38053;53.100;6.078;2023-05-01T05:46:04;8.10;99.90
52044;DHT22;38053;53.100;6.078;2023-05-01T05:48:30;8.20;99.90
52044;DHT22;38053;53.100;6.078;2023-05-01T05:50:56;8.20;99.90
52044;DHT22;38053;53.100;6.078;2023-05-01T05:53:22;8.30;99.90
52044;DHT22;38053;53.100;6.078;2023-05-01T05:55:47;8.30;99.90
52044;DHT22;38053;53.100;6.078;2023-05-01T05:58:14;8.40;99.90
52044;DHT22;38053;53.100;6.078;2023-05-01T06:00:48;8.40;99.90
52044;DHT22;38053;53.100;6.078;2023-05-01T06:03:15;8.50;99.90
52044;DHT22;38053;53.100;6.078;2023-05-01T06:05:42;8.50;99.90
52044;DHT22;38053;53.100;6.078;2023-05-01T06:08:08;8.50;99.90
52044;DHT22;38053;53.100;6.078;2023-05-01T06:10:35;8.60;99.90
52044;DHT22;38053;53.100;6.078;2023-05-01T06:13:02;8.60;99.90
52044;DHT22;38053;53.100;6.078;2023-05-01T06:15:28;8.70;99.90
52044;DHT22;38053;53.100;6.078;2023-05-01T06:17:54;8.70;99.90
52044;DHT22;38053;53.100;6.078;2023-05-01T06:20:20;8.70;99.90
52044;DHT22;38053;53.100;6.078;2023-05-01T06:22:46;8.80;99.90
52044;DHT22;38053;53.100;6.078;2023-05-01T06:25:12;8.80;99.90
52044;DHT22;38053;53.100;6.078;2023-05-01T06:27:38;8.80;99.90
52044;DHT22;38053;53.100;6.078;2023-05-01T06:30:04;8.90;99.90
52044;DHT22;38053;53.100;6.078;2023-05-01T06:32:30;8.90;99.90
52044;DHT22;38053;53.100;6.078;2023-05-01T06:34:55;9.00;99.90
52044;DHT22;38053;53.100;6.078;2023-05-01T06:37:21;9.00;99.90
52044;DHT22;38053;53.100;6.078;2023-05-01T06:39:47;9.10;99.90
52044;DHT22;38053;53.100;6.078;2023-05-01T06:42:13;9.10;99.90
52044;DHT22;38053;53.100;6.078;2023-05-01T06:44:41;9.20;99.90
52044;DHT22;38053;53.100;6.078;2023-05-01T06:47:07;9.30;99.90
52044;DHT22;38053;53.100;6.078;2023-05-01T06:49:32;9.40;99.90
52044;DHT22;38053;53.100;6.078;2023-05-01T06:51:58;9.50;99.90
52044;DHT22;38053;53.100;6.078;2023-05-01T06:54:24;9.60;99.90
52044;DHT22;38053;53.100;6.078;2023-05-01T06:56:52;9.70;99.90
52044;DHT22;38053;53.100;6.078;2023-05-01T06:59:18;9.80;99.90
52044;DHT22;38053;53.100;6.078;2023-05-01T07:01:43;9.90;99.90
52044;DHT22;38053;53.100;6.078;2023-05-01T07:04:09;10.00;99.90
52044;DHT22;38053;53.100;6.078;2023-05-01T07:06:35;10.10;99.90
52044;DHT22;38053;53.100;6.078;2023-05-01T07:09:02;10.20;99.90
52044;DHT22;38053;53.100;6.078;2023-05-01T07:11:28;10.30;99.90
52044;DHT22;38053;53.100;6.078;2023-05-01T07:13:54;10.30;99.90
52044;DHT22;38053;53.100;6.078;2023-05-01T07:16:20;10.40;99.90
52044;DHT22;38053;53.100;6.078;2023-05-01T07:18:46;10.50;99.90
52044;DHT22;38053;53.100;6.078;2023-05-01T07:21:11;10.70;99.90
52044;DHT22;38053;53.100;6.078;2023-05-01T07:23:37;10.80;99.90
52044;DHT22;38053;53.100;6.078;2023-05-01T07:26:03;10.90;99.90
52044;DHT22;38053;53.100;6.078;2023-05-01T07:28:30;11.10;99.90
52044;DHT22;38053;53.100;6.078;2023-05-01T07:30:56;11.20;99.90
52044;DHT22;38053;53.100;6.078;2023-05-01T07:33:25;11.40;99.90
52044;DHT22;38053;53.100;6.078;2023-05-01T07:35:51;11.50;99.90
52044;DHT22;38053;53.100;6.078;2023-05-01T07:38:16;11.70;99.90
52044;DHT22;38053;53.100;6.078;2023-05-01T07:40:43;11.80;99.90
52044;DHT22;38053;53.100;6.078;2023-05-01T07:43:08;12.00;99.90
52044;DHT22;38053;53.100;6.078;2023-05-01T07:45:39;12.10;99.90
52044;DHT22;38053;53.100;6.078;2023-05-01T07:48:07;12.20;99.90
52044;DHT22;38053;53.100;6.078;2023-05-01T07:50:32;12.40;99.90
52044;DHT22;38053;53.100;6.078;2023-05-01T07:52:58;12.50;99.90
52044;DHT22;38053;53.100;6.078;2023-05-01T07:55:24;12.60;99.90
52044;DHT22;38053;53.100;6.078;2023-05-01T07:57:50;12.70;99.90
52044;DHT22;38053;53.100;6.078;2023-05-01T08:00:16;12.80;99.90
52044;DHT22;38053;53.100;6.078;2023-05-01T08:02:42;12.90;99.90
52044;DHT22;38053;53.100;6.078;2023-05-01T08:05:08;13.00;99.90
52044;DHT22;38053;53.100;6.078;2023-05-01T08:07:34;13.10;99.90
52044;DHT22;38053;53.100;6.078;2023-05-01T08:10:00;13.10;99.90
52044;DHT22;38053;53.100;6.078;2023-05-01T08:12:27;13.30;99.90
52044;DHT22;38053;53.100;6.078;2023-05-01T08:14:53;13.30;99.90
52044;DHT22;38053;53.100;6.078;2023-05-01T08:17:19;13.40;99.90
52044;DHT22;38053;53.100;6.078;2023-05-01T08:19:44;13.50;99.90
52044;DHT22;38053;53.100;6.078;2023-05-01T08:22:10;13.50;99.90
52044;DHT22;38053;53.100;6.078;2023-05-01T08:24:37;13.60;99.90
52044;DHT22;38053;53.100;6.078;2023-05-01T08:27:03;13.70;99.90
52044;DHT22;38053;53.100;6.078;2023-05-01T08:29:29;13.80;99.90
52044;DHT22;38053;53.100;6.078;2023-05-01T08:31:57;13.90;99.90
52044;DHT22;38053;53.100;6.078;2023-05-01T08:34:22;14.00;99.90
52044;DHT22;38053;53.100;6.078;2023-05-01T08:36:48;14.10;99.90
52044;DHT22;38053;53.100;6.078;2023-05-01T08:39:14;14.30;99.90
52044;DHT22;38053;53.100;6.078;2023-05-01T08:41:44;14.40;99.90
52044;DHT22;38053;53.100;6.078;2023-05-01T08:44:13;14.40;99.90
52044;DHT22;38053;53.100;6.078;2023-05-01T08:49:32;14.60;99.90
52044;DHT22;38053;53.100;6.078;2023-05-01T08:52:01;14.70;99.90
52044;DHT22;38053;53.100;6.078;2023-05-01T08:54:30;14.70;99.90
52044;DHT22;38053;53.100;6.078;2023-05-01T08:57:00;14.70;99.90
52044;DHT22;38053;53.100;6.078;2023-05-01T08:59:34;14.70;99.90
52044;DHT22;38053;53.100;6.078;2023-05-01T09:02:01;14.80;99.90
52044;DHT22;38053;53.100;6.078;2023-05-01T09:04:36;14.90;99.90
52044;DHT22;38053;53.100;6.078;2023-05-01T09:07:02;15.00;99.90
52044;DHT22;38053;53.100;6.078;2023-05-01T09:09:29;15.20;99.90
52044;DHT22;38053;53.100;6.078;2023-05-01T09:12:18;15.30;99.90
52044;DHT22;38053;53.100;6.078;2023-05-01T09:14:42;15.40;99.90
52044;DHT22;38053;53.100;6.078;2023-05-01T09:17:08;15.60;99.90
52044;DHT22;38053;53.100;6.078;2023-05-01T09:19:34;15.80;99.90
52044;DHT22;38053;53.100;6.078;2023-05-01T09:22:00;15.90;99.90
52044;DHT22;38053;53.100;6.078;2023-05-01T09:24:25;16.00;99.90
52044;DHT22;38053;53.100;6.078;2023-05-01T09:26:51;16.20;99.90
52044;DHT22;38053;53.100;6.078;2023-05-01T09:29:46;16.30;99.90
52044;DHT22;38053;53.100;6.078;2023-05-01T09:34:45;16.60;99.90
52044;DHT22;38053;53.100;6.078;2023-05-01T09:37:13;16.70;99.90
52044;DHT22;38053;53.100;6.078;2023-05-01T09:39:48;16.60;99.90
52044;DHT22;38053;53.100;6.078;2023-05-01T09:42:24;16.70;99.90
52044;DHT22;38053;53.100;6.078;2023-05-01T09:44:50;16.80;99.90
52044;DHT22;38053;53.100;6.078;2023-05-01T09:47:21;16.90;99.90
52044;DHT22;38053;53.100;6.078;2023-05-01T09:49:47;17.00;99.90
52044;DHT22;38053;53.100;6.078;2023-05-01T09:52:14;17.10;99.90
52044;DHT22;38053;53.100;6.078;2023-05-01T09:54:40;17.10;99.90
52044;DHT22;38053;53.100;6.078;2023-05-01T09:57:06;17.20;99.90
52044;DHT22;38053;53.100;6.078;2023-05-01T09:59:31;17.20;99.90
52044;DHT22;38053;53.100;6.078;2023-05-01T10:01:59;17.30;99.90
52044;DHT22;38053;53.100;6.078;2023-05-01T10:04:35;17.40;99.90
52044;DHT22;38053;53.100;6.078;2023-05-01T10:07:14;17.30;99.90
52044;DHT22;38053;53.100;6.078;2023-05-01T10:09:39;17.40;99.90
52044;DHT22;38053;53.100;6.078;2023-05-01T10:12:06;17.50;99.90
52044;DHT22;38053;53.100;6.078;2023-05-01T10:14:32;17.50;99.90
52044;DHT22;38053;53.100;6.078;2023-05-01T10:17:16;17.60;99.90
52044;DHT22;38053;53.100;6.078;2023-05-01T10:19:43;17.70;99.90
52044;DHT22;38053;53.100;6.078;2023-05-01T10:22:08;17.90;99.90
52044;DHT22;38053;53.100;6.078;2023-05-01T10:24:35;17.80;99.90
52044;DHT22;38053;53.100;6.078;2023-05-01T10:27:01;17.60;99.90
52044;DHT22;38053;53.100;6.078;2023-05-01T10:29:30;17.80;99.90
52044;DHT22;38053;53.100;6.078;2023-05-01T10:31:57;17.90;99.90
52044;DHT22;38053;53.100;6.078;2023-05-01T10:34:23;18.00;99.70
52044;DHT22;38053;53.100;6.078;2023-05-01T10:37:18;17.90;99.90
52044;DHT22;38053;53.100;6.078;2023-05-01T10:39:43;18.10;99.90
52044;DHT22;38053;53.100;6.078;2023-05-01T10:42:10;18.20;99.90
52044;DHT22;38053;53.100;6.078;2023-05-01T10:44:39;18.30;99.90
52044;DHT22;38053;53.100;6.078;2023-05-01T10:55:35;18.30;99.10
52044;DHT22;38053;53.100;6.078;2023-05-01T10:58:00;18.50;99.90
52044;DHT22;38053;53.100;6.078;2023-05-01T11:00:26;18.60;98.30
52044;DHT22;38053;53.100;6.078;2023-05-01T11:08:31;18.70;97.60
52044;DHT22;38053;53.100;6.078;2023-05-01T11:10:57;18.60;98.80
52044;DHT22;38053;53.100;6.078;2023-05-01T11:13:53;18.50;98.40
52044;DHT22;38053;53.100;6.078;2023-05-01T11:21:45;18.20;96.00
52044;DHT22;38053;53.100;6.078;2023-05-01T11:24:11;18.30;97.30
52044;DHT22;38053;53.100;6.078;2023-05-01T11:26:39;18.30;97.80
52044;DHT22;38053;53.100;6.078;2023-05-01T11:29:05;18.30;97.80
52044;DHT22;38053;53.100;6.078;2023-05-01T11:31:31;18.00;98.70
52044;DHT22;38053;53.100;6.078;2023-05-01T11:33:58;18.10;98.90
52044;DHT22;38053;53.100;6.078;2023-05-01T11:36:25;18.00;98.80
52044;DHT22;38053;53.100;6.078;2023-05-01T11:38:56;18.00;98.80
52044;DHT22;38053;53.100;6.078;2023-05-01T11:41:26;17.80;98.50
52044;DHT22;38053;53.100;6.078;2023-05-01T11:43:57;17.90;99.00
52044;DHT22;38053;53.100;6.078;2023-05-01T11:46:27;17.90;98.40
52044;DHT22;38053;53.100;6.078;2023-05-01T11:48:57;17.80;99.20
52044;DHT22;38053;53.100;6.078;2023-05-01T11:51:24;17.90;99.70
52044;DHT22;38053;53.100;6.078;2023-05-01T11:54:07;17.90;99.90
52044;DHT22;38053;53.100;6.078;2023-05-01T11:56:35;17.90;99.10
52044;DHT22;38053;53.100;6.078;2023-05-01T11:59:15;18.00;99.30
52044;DHT22;38053;53.100;6.078;2023-05-01T12:01:45;18.00;99.90
52044;DHT22;38053;53.100;6.078;2023-05-01T12:04:12;18.00;99.90
52044;DHT22;38053;53.100;6.078;2023-05-01T12:06:45;18.10;99.90
52044;DHT22;38053;53.100;6.078;2023-05-01T12:09:15;17.80;99.90
52044;DHT22;38053;53.100;6.078;2023-05-01T12:11:42;18.00;99.90
52044;DHT22;38053;53.100;6.078;2023-05-01T12:14:08;17.90;99.90
52044;DHT22;38053;53.100;6.078;2023-05-01T12:16:35;17.90;99.90
52044;DHT22;38053;53.100;6.078;2023-05-01T12:19:01;17.90;99.90
52044;DHT22;38053;53.100;6.078;2023-05-01T12:21:27;17.70;99.90
52044;DHT22;38053;53.100;6.078;2023-05-01T12:23:53;17.50;99.90
52044;DHT22;38053;53.100;6.078;2023-05-01T12:26:23;17.30;99.90
52044;DHT22;38053;53.100;6.078;2023-05-01T12:31:18;17.10;99.90
52044;DHT22;38053;53.100;6.078;2023-05-01T12:33:52;17.00;99.90
52044;DHT22;38053;53.100;6.078;2023-05-01T12:36:18;16.90;99.90
52044;DHT22;38053;53.100;6.078;2023-05-01T12:39:03;16.80;99.90
52044;DHT22;38053;53.100;6.078;2023-05-01T12:41:50;16.70;99.90
52044;DHT22;38053;53.100;6.078;2023-05-01T12:44:20;16.70;99.90
52044;DHT22;38053;53.100;6.078;2023-05-01T12:49:22;16.60;99.90
52044;DHT22;38053;53.100;6.078;2023-05-01T12:51:50;16.60;99.90
52044;DHT22;38053;53.100;6.078;2023-05-01T12:54:30;16.50;99.90
52044;DHT22;38053;53.100;6.078;2023-05-01T12:57:13;16.50;99.90
52044;DHT22;38053;53.100;6.078;2023-05-01T12:59:44;16.50;99.90
52044;DHT22;38053;53.100;6.078;2023-05-01T13:02:16;16.40;99.90
52044;DHT22;38053;53.100;6.078;2023-05-01T13:04:43;16.40;99.90
52044;DHT22;38053;53.100;6.078;2023-05-01T13:07:18;16.40;99.90
52044;DHT22;38053;53.100;6.078;2023-05-01T13:12:17;16.40;99.90
52044;DHT22;38053;53.100;6.078;2023-05-01T13:14:43;16.40;99.90
52044;DHT22;38053;53.100;6.078;2023-05-01T13:17:09;16.50;99.90
52044;DHT22;38053;53.100;6.078;2023-05-01T13:19:36;16.40;99.90
52044;DHT22;38053;53.100;6.078;2023-05-01T13:22:03;16.40;99.90
52044;DHT22;38053;53.100;6.078;2023-05-01T13:24:40;16.40;99.90
52044;DHT22;38053;53.100;6.078;2023-05-01T13:27:10;16.30;99.90
52044;DHT22;38053;53.100;6.078;2023-05-01T13:29:37;16.30;99.90
52044;DHT22;38053;53.100;6.078;2023-05-01T13:32:04;16.40;99.90
52044;DHT22;38053;53.100;6.078;2023-05-01T13:34:32;16.40;99.90
52044;DHT22;38053;53.100;6.078;2023-05-01T13:37:00;16.50;99.90
52044;DHT22;38053;53.100;6.078;2023-05-01T13:39:26;16.60;99.90
52044;DHT22;38053;53.100;6.078;2023-05-01T13:41:52;16.70;99.90
52044;DHT22;38053;53.100;6.078;2023-05-01T13:44:19;16.70;99.90
52044;DHT22;38053;53.100;6.078;2023-05-01T13:46:46;16.80;99.90
52044;DHT22;38053;53.100;6.078;2023-05-01T13:49:13;16.90;99.90
52044;DHT22;38053;53.100;6.078;2023-05-01T13:51:43;16.90;99.90
52044;DHT22;38053;53.100;6.078;2023-05-01T13:54:11;17.20;99.90
52044;DHT22;38053;53.100;6.078;2023-05-01T13:56:39;17.40;99.90
52044;DHT22;38053;53.100;6.078;2023-05-01T13:59:06;17.50;99.90
52044;DHT22;38053;53.100;6.078;2023-05-01T14:01:41;17.80;99.90
52044;DHT22;38053;53.100;6.078;2023-05-01T14:04:13;18.20;99.90
52044;DHT22;38053;53.100;6.078;2023-05-01T14:06:43;18.40;99.90
52044;DHT22;38053;53.100;6.078;2023-05-01T14:09:10;18.60;99.90
52044;DHT22;38053;53.100;6.078;2023-05-01T14:11:46;18.70;99.90
52044;DHT22;38053;53.100;6.078;2023-05-01T14:14:16;18.90;99.90
52044;DHT22;38053;53.100;6.078;2023-05-01T14:16:46;19.00;99.90
52044;DHT22;38053;53.100;6.078;2023-05-01T14:19:14;18.80;99.90
52044;DHT22;38053;53.100;6.078;2023-05-01T14:21:41;18.80;99.90
52044;DHT22;38053;53.100;6.078;2023-05-01T14:24:08;18.80;99.90
52044;DHT22;38053;53.100;6.078;2023-05-01T14:26:37;18.80;99.90
52044;DHT22;38053;53.100;6.078;2023-05-01T14:29:04;18.70;99.90
52044;DHT22;38053;53.100;6.078;2023-05-01T14:31:32;18.60;99.90
52044;DHT22;38053;53.100;6.078;2023-05-01T14:33:59;18.40;99.90
52044;DHT22;38053;53.100;6.078;2023-05-01T14:36:26;18.20;99.90
52044;DHT22;38053;53.100;6.078;2023-05-01T14:38:56;17.90;99.90
52044;DHT22;38053;53.100;6.078;2023-05-01T14:41:22;17.60;99.90
52044;DHT22;38053;53.100;6.078;2023-05-01T14:43:50;17.50;99.90
52044;DHT22;38053;53.100;6.078;2023-05-01T14:48:52;17.20;99.90
52044;DHT22;38053;53.100;6.078;2023-05-01T14:51:19;17.20;99.90
52044;DHT22;38053;53.100;6.078;2023-05-01T14:53:45;17.20;99.90
52044;DHT22;38053;53.100;6.078;2023-05-01T14:56:11;16.80;99.90
52044;DHT22;38053;53.100;6.078;2023-05-01T14:58:37;16.80;99.90
52044;DHT22;38053;53.100;6.078;2023-05-01T15:01:03;16.80;99.90
52044;DHT22;38053;53.100;6.078;2023-05-01T15:03:29;16.70;99.90
52044;DHT22;38053;53.100;6.078;2023-05-01T15:05:55;16.70;99.90
52044;DHT22;38053;53.100;6.078;2023-05-01T15:08:22;16.60;99.90
52044;DHT22;38053;53.100;6.078;2023-05-01T15:10:48;16.60;99.90
52044;DHT22;38053;53.100;6.078;2023-05-01T15:13:14;16.50;99.90
52044;DHT22;38053;53.100;6.078;2023-05-01T15:15:40;16.50;99.90
52044;DHT22;38053;53.100;6.078;2023-05-01T15:18:06;16.50;99.90
52044;DHT22;38053;53.100;6.078;2023-05-01T15:20:31;16.30;99.90
52044;DHT22;38053;53.100;6.078;2023-05-01T15:22:57;16.50;99.90
52044;DHT22;38053;53.100;6.078;2023-05-01T15:25:23;16.50;99.90
52044;DHT22;38053;53.100;6.078;2023-05-01T15:27:49;16.40;99.90
52044;DHT22;38053;53.100;6.078;2023-05-01T15:30:15;16.50;99.90
52044;DHT22;38053;53.100;6.078;2023-05-01T15:32:41;16.80;99.90
52044;DHT22;38053;53.100;6.078;2023-05-01T15:35:07;17.10;99.90
52044;DHT22;38053;53.100;6.078;2023-05-01T15:37:33;17.20;99.90
52044;DHT22;38053;53.100;6.078;2023-05-01T15:39:59;17.40;99.90
52044;DHT22;38053;53.100;6.078;2023-05-01T15:42:25;17.60;99.90
52044;DHT22;38053;53.100;6.078;2023-05-01T15:44:51;17.40;99.90
52044;DHT22;38053;53.100;6.078;2023-05-01T15:47:17;17.40;99.90
52044;DHT22;38053;53.100;6.078;2023-05-01T15:49:42;17.30;99.90
52044;DHT22;38053;53.100;6.078;2023-05-01T15:52:08;17.30;99.90
52044;DHT22;38053;53.100;6.078;2023-05-01T15:54:34;17.30;99.90
52044;DHT22;38053;53.100;6.078;2023-05-01T15:57:00;17.20;99.90
52044;DHT22;38053;53.100;6.078;2023-05-01T15:59:27;17.10;99.90
52044;DHT22;38053;53.100;6.078;2023-05-01T16:01:53;17.00;99.90
52044;DHT22;38053;53.100;6.078;2023-05-01T16:04:19;17.30;99.90
52044;DHT22;38053;53.100;6.078;2023-05-01T16:06:45;17.70;99.90
52044;DHT22;38053;53.100;6.078;2023-05-01T16:09:12;18.20;99.90
52044;DHT22;38053;53.100;6.078;2023-05-01T16:11:38;18.90;99.90
52044;DHT22;38053;53.100;6.078;2023-05-01T16:14:07;19.20;99.90
52044;DHT22;38053;53.100;6.078;2023-05-01T16:16:33;18.90;99.90
52044;DHT22;38053;53.100;6.078;2023-05-01T16:18:59;19.10;99.90
52044;DHT22;38053;53.100;6.078;2023-05-01T16:21:26;19.30;99.90
52044;DHT22;38053;53.100;6.078;2023-05-01T16:23:56;19.00;99.90
52044;DHT22;38053;53.100;6.078;2023-05-01T16:26:27;18.80;99.90
52044;DHT22;38053;53.100;6.078;2023-05-01T16:29:14;19.10;99.90
52044;DHT22;38053;53.100;6.078;2023-05-01T16:31:42;19.50;99.90